sensor_id;sensor_type;location;lat;lon;timestamp;temperature;humidity
20546;DHT22;10431;50.228;9.112;2023-07-08T00:01:14;22.70;87.90
20546;DHT22;10431;50.228;9.112;2023-07-08T00:03:41;22.70;87.80
20546;DHT22;10431;50.228;9.112;2023-07-08T00:06:09;22.70;87.70
20546;DHT22;10431;50.228;9.112;2023-07-08T00:08:36;22.70;87.70
20546;DHT22;10431;50.228;9.112;2023-07-08T00:11:07;22.70;87.60
20546;DHT22;10431;50.228;9.112;2023-07-08T00:13:33;22.70;87.60
20546;DHT22;10431;50.228;9.112;2023-07-08T00:15:59;22.70;87.60
20546;DHT22;10431;50.228;9.112;2023-07-08T00:18:25;22.70;87.60
20546;DHT22;10431;50.228;9.112;2023-07-08T00:20:51;22.70;87.50
20546;DHT22;10431;50.228;9.112;2023-07-08T00:23:17;22.70;87.60
20546;DHT22;10431;50.228;9.112;2023-07-08T00:25:47;22.70;87.60
20546;DHT22;10431;50.228;9.112;2023-07-08T00:28:14;22.70;87.60
20546;DHT22;10431;50.228;9.112;2023-07-08T00:30:41;22.70;87.60
20546;DHT22;10431;50.228;9.112;2023-07-08T00:33:07;22.70;87.60
20546;DHT22;10431;50.228;9.112;2023-07-08T00:35:34;22.70;87.70
20546;DHT22;10431;50.228;9.112;2023-07-08T00:38:01;22.70;87.70
20546;DHT22;10431;50.228;9.112;2023-07-08T00:40:28;22.70;87.70
20546;DHT22;10431;50.228;9.112;2023-07-08T00:42:55;22.70;87.70
20546;DHT22;10431;50.228;9.112;2023-07-08T00:45:38;22.70;87.70
20546;DHT22;10431;50.228;9.112;2023-07-08T00:48:28;22.70;87.70
20546;DHT22;10431;50.228;9.112;2023-07-08T00:50:52;22.70;87.70
20546;DHT22;10431;50.228;9.112;2023-07-08T00:53:27;22.70;87.70
20546;DHT22;10431;50.228;9.112;2023-07-08T00:55:54;22.70;87.70
20546;DHT22;10431;50.228;9.112;2023-07-08T00:58:23;22.70;87.70
20546;DHT22;10431;50.228;9.112;2023-07-08T01:00:51;22.70;87.70
20546;DHT22;10431;50.228;9.112;2023-07-08T01:03:17;22.70;87.70
20546;DHT22;10431;50.228;9.112;2023-07-08T01:05:44;22.70;87.70
20546;DHT22;10431;50.228;9.112;2023-07-08T01:08:11;22.70;87.70
20546;DHT22;10431;50.228;9.112;2023-07-08T01:10:49;22.70;87.70
20546;DHT22;10431;50.228;9.112;2023-07-08T01:13:18;22.70;87.70
20546;DHT22;10431;50.228;9.112;2023-07-08T01:15:45;22.70;87.70
20546;DHT22;10431;50.228;9.112;2023-07-08T01:18:12;22.70;87.60
20546;DHT22;10431;50.228;9.112;2023-07-08T01:20:42;22.70;87.60
20546;DHT22;10431;50.228;9.112;2023-07-08T01:23:11;22.70;87.60
20546;DHT22;10431;50.228;9.112;2023-07-08T01:25:38;22.70;87.50
20546;DHT22;10431;50.228;9.112;2023-07-08T01:28:07;22.70;87.60
20546;DHT22;10431;50.228;9.112;2023-07-08T01:30:33;22.70;87.50
20546;DHT22;10431;50.228;9.112;2023-07-08T01:33:00;22.70;87.60
20546;DHT22;10431;50.228;9.112;2023-07-08T01:35:27;22.70;87.70
20546;DHT22;10431;50.228;9.112;2023-07-08T01:37:54;22.70;87.60
20546;DHT22;10431;50.228;9.112;2023-07-08T01:40:30;22.70;87.60
20546;DHT22;10431;50.228;9.112;2023-07-08T01:42:56;22.70;87.60
20546;DHT22;10431;50.228;9.112;2023-07-08T01:45:23;22.70;87.50
20546;DHT22;10431;50.228;9.112;2023-07-08T01:50:19;22.70;87.60
20546;DHT22;10431;50.228;9.112;2023-07-08T01:52:46;22.70;87.50
20546;DHT22;10431;50.228;9.112;2023-07-08T01:55:12;22.70;87.50
20546;DHT22;10431;50.228;9.112;2023-07-08T01:57:38;22.60;87.40
20546;DHT22;10431;50.228;9.112;2023-07-08T02:00:04;22.70;87.50
20546;DHT22;10431;50.228;9.112;2023-07-08T02:02:39;22.70;87.50
20546;DHT22;10431;50.228;9.112;2023-07-08T02:05:06;22.70;87.40
20546;DHT22;10431;50.228;9.112;2023-07-08T02:07:32;22.70;87.40
20546;DHT22;10431;50.228;9.112;2023-07-08T02:09:58;22.70;87.40
20546;DHT22;10431;50.228;9.112;2023-07-08T02:12:24;22.70;87.40
20546;DHT22;10431;50.228;9.112;2023-07-08T02:14:50;22.70;87.30
20546;DHT22;10431;50.228;9.112;2023-07-08T02:17:16;22.70;87.30
20546;DHT22;10431;50.228;9.112;2023-07-08T02:19:43;22.70;87.20
20546;DHT22;10431;50.228;9.112;2023-07-08T02:22:09;22.70;87.30
20546;DHT22;10431;50.228;9.112;2023-07-08T02:24:35;22.60;87.20
20546;DHT22;10431;50.228;9.112;2023-07-08T02:27:01;22.70;87.20
20546;DHT22;10431;50.228;9.112;2023-07-08T02:29:27;22.60;87.10
20546;DHT22;10431;50.228;9.112;2023-07-08T02:31:55;22.70;87.20
20546;DHT22;10431;50.228;9.112;2023-07-08T02:34:21;22.60;87.20
20546;DHT22;10431;50.228;9.112;2023-07-08T02:36:47;22.60;87.20
20546;DHT22;10431;50.228;9.112;2023-07-08T02:39:13;22.70;87.20
20546;DHT22;10431;50.228;9.112;2023-07-08T02:41:39;22.70;87.20
20546;DHT22;10431;50.228;9.112;2023-07-08T02:44:05;22.60;87.20
20546;DHT22;10431;50.228;9.112;2023-07-08T02:46:31;22.60;87.20
20546;DHT22;10431;50.228;9.112;2023-07-08T02:48:57;22.60;87.20
20546;DHT22;10431;50.228;9.112;2023-07-08T02:51:23;22.70;87.20
20546;DHT22;10431;50.228;9.112;2023-07-08T02:53:49;22.70;87.20
20546;DHT22;10431;50.228;9.112;2023-07-08T02:56:15;22.60;87.20
20546;DHT22;10431;50.228;9.112;2023-07-08T02:58:41;22.60;87.10
20546;DHT22;10431;50.228;9.112;2023-07-08T03:01:07;22.60;87.10
20546;DHT22;10431;50.228;9.112;2023-07-08T03:03:34;22.60;87.20
20546;DHT22;10431;50.228;9.112;2023-07-08T03:06:02;22.60;87.10
20546;DHT22;10431;50.228;9.112;2023-07-08T03:08:28;22.60;87.00
20546;DHT22;10431;50.228;9.112;2023-07-08T03:10:59;22.60;87.10
20546;DHT22;10431;50.228;9.112;2023-07-08T03:13:25;22.60;87.10
20546;DHT22;10431;50.228;9.112;2023-07-08T03:15:51;22.60;87.00
20546;DHT22;10431;50.228;9.112;2023-07-08T03:18:17;22.60;87.00
20546;DHT22;10431;50.228;9.112;2023-07-08T03:20:44;22.60;87.00
20546;DHT22;10431;50.228;9.112;2023-07-08T03:23:13;22.60;87.00
20546;DHT22;10431;50.228;9.112;2023-07-08T03:25:39;22.60;87.00
20546;DHT22;10431;50.228;9.112;2023-07-08T03:28:05;22.60;87.10
20546;DHT22;10431;50.228;9.112;2023-07-08T03:30:32;22.60;87.00
20546;DHT22;10431;50.228;9.112;2023-07-08T03:32:59;22.60;87.00
20546;DHT22;10431;50.228;9.112;2023-07-08T03:35:25;22.60;87.00
20546;DHT22;10431;50.228;9.112;2023-07-08T03:37:52;22.60;87.00
20546;DHT22;10431;50.228;9.112;2023-07-08T03:40:18;22.60;87.00
20546;DHT22;10431;50.228;9.112;2023-07-08T03:42:44;22.60;87.00
20546;DHT22;10431;50.228;9.112;2023-07-08T03:45:10;22.60;87.00
20546;DHT22;10431;50.228;9.112;2023-07-08T03:47:36;22.60;87.00
20546;DHT22;10431;50.228;9.112;2023-07-08T03:50:02;22.50;86.40
20546;DHT22;10431;50.228;9.112;2023-07-08T03:52:28;22.40;85.20
20546;DHT22;10431;50.228;9.112;2023-07-08T03:54:55;22.10;84.70
20546;DHT22;10431;50.228;9.112;2023-07-08T03:57:22;21.90;85.10
20546;DHT22;10431;50.228;9.112;2023-07-08T03:59:48;21.80;85.20
20546;DHT22;10431;50.228;9.112;2023-07-08T04:02:14;21.70;85.60
20546;DHT22;10431;50.228;9.112;2023-07-08T04:04:40;21.70;85.70
20546;DHT22;10431;50.228;9.112;2023-07-08T04:07:07;21.60;86.00
20546;DHT22;10431;50.228;9.112;2023-07-08T04:09:33;21.60;86.20
20546;DHT22;10431;50.228;9.112;2023-07-08T04:11:59;21.70;86.30
20546;DHT22;10431;50.228;9.112;2023-07-08T04:14:25;21.60;86.40
20546;DHT22;10431;50.228;9.112;2023-07-08T04:16:52;21.50;87.00
20546;DHT22;10431;50.228;9.112;2023-07-08T04:19:20;21.50;87.20
20546;DHT22;10431;50.228;9.112;2023-07-08T04:21:48;21.50;87.30
20546;DHT22;10431;50.228;9.112;2023-07-08T04:24:15;21.50;87.40
20546;DHT22;10431;50.228;9.112;2023-07-08T04:26:41;21.50;87.60
20546;DHT22;10431;50.228;9.112;2023-07-08T04:29:09;21.50;87.80
20546;DHT22;10431;50.228;9.112;2023-07-08T04:31:36;21.50;87.80
20546;DHT22;10431;50.228;9.112;2023-07-08T04:34:02;21.50;87.90
20546;DHT22;10431;50.228;9.112;2023-07-08T04:36:28;21.50;88.00
20546;DHT22;10431;50.228;9.112;2023-07-08T04:38:54;21.60;88.40
20546;DHT22;10431;50.228;9.112;2023-07-08T04:41:21;21.60;88.50
20546;DHT22;10431;50.228;9.112;2023-07-08T04:43:47;21.70;88.30
20546;DHT22;10431;50.228;9.112;2023-07-08T04:46:18;21.70;87.90
20546;DHT22;10431;50.228;9.112;2023-07-08T04:48:44;21.80;87.70
20546;DHT22;10431;50.228;9.112;2023-07-08T04:51:11;21.80;87.40
20546;DHT22;10431;50.228;9.112;2023-07-08T04:53:37;21.80;87.40
20546;DHT22;10431;50.228;9.112;2023-07-08T04:56:03;21.80;88.10
20546;DHT22;10431;50.228;9.112;2023-07-08T04:58:29;21.80;89.80
20546;DHT22;10431;50.228;9.112;2023-07-08T05:00:55;21.80;90.10
20546;DHT22;10431;50.228;9.112;2023-07-08T05:03:21;21.80;90.20
20546;DHT22;10431;50.228;9.112;2023-07-08T05:05:47;21.80;90.20
20546;DHT22;10431;50.228;9.112;2023-07-08T05:08:13;21.90;90.10
20546;DHT22;10431;50.228;9.112;2023-07-08T05:10:39;21.80;89.90
20546;DHT22;10431;50.228;9.112;2023-07-08T05:13:05;21.90;90.00
20546;DHT22;10431;50.228;9.112;2023-07-08T05:15:31;21.90;89.80
20546;DHT22;10431;50.228;9.112;2023-07-08T05:17:57;21.90;90.20
20546;DHT22;10431;50.228;9.112;2023-07-08T05:20:23;22.00;90.10
20546;DHT22;10431;50.228;9.112;2023-07-08T05:22:49;22.00;90.00
20546;DHT22;10431;50.228;9.112;2023-07-08T05:25:15;22.00;90.00
20546;DHT22;10431;50.228;9.112;2023-07-08T05:27:41;22.10;89.90
20546;DHT22;10431;50.228;9.112;2023-07-08T05:30:08;22.10;90.10
20546;DHT22;10431;50.228;9.112;2023-07-08T05:32:36;22.10;89.40
20546;DHT22;10431;50.228;9.112;2023-07-08T05:35:02;22.20;90.10
20546;DHT22;10431;50.228;9.112;2023-07-08T05:37:28;22.20;90.10
20546;DHT22;10431;50.228;9.112;2023-07-08T05:39:55;22.20;90.00
20546;DHT22;10431;50.228;9.112;2023-07-08T05:42:21;22.20;90.00
20546;DHT22;10431;50.228;9.112;2023-07-08T05:44:47;22.20;90.10
20546;DHT22;10431;50.228;9.112;2023-07-08T05:47:14;22.20;90.20
20546;DHT22;10431;50.228;9.112;2023-07-08T05:49:40;22.20;90.40
20546;DHT22;10431;50.228;9.112;2023-07-08T05:52:06;22.20;90.30
20546;DHT22;10431;50.228;9.112;2023-07-08T05:54:40;22.20;90.40
20546;DHT22;10431;50.228;9.112;2023-07-08T05:57:07;22.20;90.30
20546;DHT22;10431;50.228;9.112;2023-07-08T05:59:34;22.20;90.30
20546;DHT22;10431;50.228;9.112;2023-07-08T06:02:00;22.20;90.40
20546;DHT22;10431;50.228;9.112;2023-07-08T06:04:27;22.30;89.80
20546;DHT22;10431;50.228;9.112;2023-07-08T06:06:53;22.30;89.50
20546;DHT22;10431;50.228;9.112;2023-07-08T06:09:19;22.30;89.00
20546;DHT22;10431;50.228;9.112;2023-07-08T06:11:45;22.30;87.20
20546;DHT22;10431;50.228;9.112;2023-07-08T06:14:11;22.30;85.90
20546;DHT22;10431;50.228;9.112;2023-07-08T06:16:37;22.30;86.70
20546;DHT22;10431;50.228;9.112;2023-07-08T06:19:03;22.30;86.40
20546;DHT22;10431;50.228;9.112;2023-07-08T06:21:29;22.40;86.50
20546;DHT22;10431;50.228;9.112;2023-07-08T06:23:55;22.40;85.80
20546;DHT22;10431;50.228;9.112;2023-07-08T06:26:21;22.40;84.80
20546;DHT22;10431;50.228;9.112;2023-07-08T06:28:47;22.40;85.30
20546;DHT22;10431;50.228;9.112;2023-07-08T06:31:13;22.40;85.60
20546;DHT22;10431;50.228;9.112;2023-07-08T06:33:39;22.40;85.60
20546;DHT22;10431;50.228;9.112;2023-07-08T06:36:05;22.40;85.90
20546;DHT22;10431;50.228;9.112;2023-07-08T06:38:32;22.50;85.00
20546;DHT22;10431;50.228;9.112;2023-07-08T06:40:58;22.50;84.20
20546;DHT22;10431;50.228;9.112;2023-07-08T06:43:24;22.50;84.20
20546;DHT22;10431;50.228;9.112;2023-07-08T06:45:57;22.50;84.80
20546;DHT22;10431;50.228;9.112;2023-07-08T06:48:23;22.50;84.70
20546;DHT22;10431;50.228;9.112;2023-07-08T06:50:50;22.50;85.00
20546;DHT22;10431;50.228;9.112;2023-07-08T06:53:16;22.50;85.50
20546;DHT22;10431;50.228;9.112;2023-07-08T06:55:43;22.60;86.20
20546;DHT22;10431;50.228;9.112;2023-07-08T06:58:10;22.60;86.60
20546;DHT22;10431;50.228;9.112;2023-07-08T07:00:36;22.60;85.80
20546;DHT22;10431;50.228;9.112;2023-07-08T07:03:02;22.60;85.90
20546;DHT22;10431;50.228;9.112;2023-07-08T07:05:28;22.60;86.20
20546;DHT22;10431;50.228;9.112;2023-07-08T07:07:54;22.50;86.30
20546;DHT22;10431;50.228;9.112;2023-07-08T07:10:20;22.50;86.40
20546;DHT22;10431;50.228;9.112;2023-07-08T07:12:46;22.50;86.60
20546;DHT22;10431;50.228;9.112;2023-07-08T07:15:12;22.50;86.60
20546;DHT22;10431;50.228;9.112;2023-07-08T07:17:38;22.50;86.70
20546;DHT22;10431;50.228;9.112;2023-07-08T07:20:04;22.50;86.50
20546;DHT22;10431;50.228;9.112;2023-07-08T07:22:31;22.60;86.00
20546;DHT22;10431;50.228;9.112;2023-07-08T07:24:57;22.60;86.20
20546;DHT22;10431;50.228;9.112;2023-07-08T07:27:23;22.60;86.30
20546;DHT22;10431;50.228;9.112;2023-07-08T07:29:50;22.60;86.50
20546;DHT22;10431;50.228;9.112;2023-07-08T07:32:17;22.60;86.70
20546;DHT22;10431;50.228;9.112;2023-07-08T07:34:46;22.60;86.70
20546;DHT22;10431;50.228;9.112;2023-07-08T07:37:12;22.60;86.80
20546;DHT22;10431;50.228;9.112;2023-07-08T07:39:39;22.50;86.80
20546;DHT22;10431;50.228;9.112;2023-07-08T07:42:05;22.60;86.90
20546;DHT22;10431;50.228;9.112;2023-07-08T07:44:31;22.60;86.90
20546;DHT22;10431;50.228;9.112;2023-07-08T07:46:57;22.50;86.90
20546;DHT22;10431;50.228;9.112;2023-07-08T07:49:23;22.50;87.00
20546;DHT22;10431;50.228;9.112;2023-07-08T07:51:49;22.80;86.10
20546;DHT22;10431;50.228;9.112;2023-07-08T07:54:15;23.00;83.00
20546;DHT22;10431;50.228;9.112;2023-07-08T07:56:41;23.30;81.60
20546;DHT22;10431;50.228;9.112;2023-07-08T07:59:09;23.20;82.30
20546;DHT22;10431;50.228;9.112;2023-07-08T08:01:35;23.10;83.70
20546;DHT22;10431;50.228;9.112;2023-07-08T08:04:01;23.00;85.10
20546;DHT22;10431;50.228;9.112;2023-07-08T08:06:27;23.00;86.70
20546;DHT22;10431;50.228;9.112;2023-07-08T08:08:53;23.00;85.00
20546;DHT22;10431;50.228;9.112;2023-07-08T08:11:19;23.00;85.60
20546;DHT22;10431;50.228;9.112;2023-07-08T08:13:45;23.00;86.60
20546;DHT22;10431;50.228;9.112;2023-07-08T08:16:11;22.90;86.70
20546;DHT22;10431;50.228;9.112;2023-07-08T08:18:37;22.90;86.90
20546;DHT22;10431;50.228;9.112;2023-07-08T08:21:03;22.80;87.30
20546;DHT22;10431;50.228;9.112;2023-07-08T08:23:29;23.20;85.10
20546;DHT22;10431;50.228;9.112;2023-07-08T08:25:55;23.60;82.70
20546;DHT22;10431;50.228;9.112;2023-07-08T08:28:21;23.50;83.00
20546;DHT22;10431;50.228;9.112;2023-07-08T08:30:48;23.30;84.40
20546;DHT22;10431;50.228;9.112;2023-07-08T08:33:14;23.20;85.60
20546;DHT22;10431;50.228;9.112;2023-07-08T08:35:41;23.20;86.40
20546;DHT22;10431;50.228;9.112;2023-07-08T08:38:07;23.10;87.30
20546;DHT22;10431;50.228;9.112;2023-07-08T08:40:33;23.00;88.50
20546;DHT22;10431;50.228;9.112;2023-07-08T08:43:03;23.00;88.30
20546;DHT22;10431;50.228;9.112;2023-07-08T08:45:32;23.00;87.40
20546;DHT22;10431;50.228;9.112;2023-07-08T08:48:00;23.00;87.60
20546;DHT22;10431;50.228;9.112;2023-07-08T08:50:39;23.00;88.10
20546;DHT22;10431;50.228;9.112;2023-07-08T08:53:11;22.90;88.10
20546;DHT22;10431;50.228;9.112;2023-07-08T08:55:37;22.90;88.30
20546;DHT22;10431;50.228;9.112;2023-07-08T09:03:15;22.90;88.70
20546;DHT22;10431;50.228;9.112;2023-07-08T09:05:43;22.90;88.20
20546;DHT22;10431;50.228;9.112;2023-07-08T09:08:15;22.90;88.60
20546;DHT22;10431;50.228;9.112;2023-07-08T09:13:30;22.90;88.60
20546;DHT22;10431;50.228;9.112;2023-07-08T09:15:59;22.90;88.70
20546;DHT22;10431;50.228;9.112;2023-07-08T09:18:28;22.90;88.80
20546;DHT22;10431;50.228;9.112;2023-07-08T09:20:56;22.90;88.80
20546;DHT22;10431;50.228;9.112;2023-07-08T09:23:25;22.90;89.40
20546;DHT22;10431;50.228;9.112;2023-07-08T09:26:01;22.90;89.60
20546;DHT22;10431;50.228;9.112;2023-07-08T09:28:43;22.90;89.60
20546;DHT22;10431;50.228;9.112;2023-07-08T09:31:16;23.00;89.70
20546;DHT22;10431;50.228;9.112;2023-07-08T09:33:46;23.00;89.70
20546;DHT22;10431;50.228;9.112;2023-07-08T09:36:16;23.00;89.10
20546;DHT22;10431;50.228;9.112;2023-07-08T09:38:43;23.00;89.00
20546;DHT22;10431;50.228;9.112;2023-07-08T09:41:10;23.00;89.00
20546;DHT22;10431;50.228;9.112;2023-07-08T09:43:39;23.00;89.10
20546;DHT22;10431;50.228;9.112;2023-07-08T09:46:05;23.00;89.10
20546;DHT22;10431;50.228;9.112;2023-07-08T09:48:36;23.00;89.00
20546;DHT22;10431;50.228;9.112;2023-07-08T09:51:03;23.00;89.00
20546;DHT22;10431;50.228;9.112;2023-07-08T09:53:29;23.00;89.00
20546;DHT22;10431;50.228;9.112;2023-07-08T09:55:59;23.20;86.60
20546;DHT22;10431;50.228;9.112;2023-07-08T09:58:27;23.30;86.20
20546;DHT22;10431;50.228;9.112;2023-07-08T10:00:55;23.30;86.60
20546;DHT22;10431;50.228;9.112;2023-07-08T10:03:24;23.20;87.20
20546;DHT22;10431;50.228;9.112;2023-07-08T10:05:51;23.10;87.50
20546;DHT22;10431;50.228;9.112;2023-07-08T10:08:19;23.10;87.90
20546;DHT22;10431;50.228;9.112;2023-07-08T10:10:46;23.10;88.10
20546;DHT22;10431;50.228;9.112;2023-07-08T10:15:43;23.50;83.80
20546;DHT22;10431;50.228;9.112;2023-07-08T10:18:13;23.80;82.90
20546;DHT22;10431;50.228;9.112;2023-07-08T10:20:54;23.80;85.00
20546;DHT22;10431;50.228;9.112;2023-07-08T10:23:30;23.70;85.30
20546;DHT22;10431;50.228;9.112;2023-07-08T10:26:03;23.60;87.40
20546;DHT22;10431;50.228;9.112;2023-07-08T10:28:36;23.50;87.80
20546;DHT22;10431;50.228;9.112;2023-07-08T10:31:20;23.50;88.20
20546;DHT22;10431;50.228;9.112;2023-07-08T10:44:39;23.40;90.00
20546;DHT22;10431;50.228;9.112;2023-07-08T10:50:11;23.40;90.10
20546;DHT22;10431;50.228;9.112;2023-07-08T10:52:56;23.40;90.10
20546;DHT22;10431;50.228;9.112;2023-07-08T10:55:28;23.40;90.40
20546;DHT22;10431;50.228;9.112;2023-07-08T11:00:51;23.40;90.80
20546;DHT22;10431;50.228;9.112;2023-07-08T11:06:01;23.40;90.60
20546;DHT22;10431;50.228;9.112;2023-07-08T11:09:02;23.40;90.60
20546;DHT22;10431;50.228;9.112;2023-07-08T11:13:51;23.30;90.60
20546;DHT22;10431;50.228;9.112;2023-07-08T11:16:26;23.30;90.50
20546;DHT22;10431;50.228;9.112;2023-07-08T11:18:54;23.30;90.50
20546;DHT22;10431;50.228;9.112;2023-07-08T11:21:27;23.30;90.60
20546;DHT22;10431;50.228;9.112;2023-07-08T11:24:11;23.50;88.80
20546;DHT22;10431;50.228;9.112;2023-07-08T11:26:44;23.40;87.80
20546;DHT22;10431;50.228;9.112;2023-07-08T11:29:54;23.40;89.30
20546;DHT22;10431;50.228;9.112;2023-07-08T11:32:00;23.40;89.80
20546;DHT22;10431;50.228;9.112;2023-07-08T11:34:26;23.30;89.60
20546;DHT22;10431;50.228;9.112;2023-07-08T11:36:54;23.30;89.80
20546;DHT22;10431;50.228;9.112;2023-07-08T11:41:55;23.20;89.80
20546;DHT22;10431;50.228;9.112;2023-07-08T11:44:29;23.30;89.90
20546;DHT22;10431;50.228;9.112;2023-07-08T11:46:55;23.20;89.80
20546;DHT22;10431;50.228;9.112;2023-07-08T11:49:21;23.40;87.90
20546;DHT22;10431;50.228;9.112;2023-07-08T11:51:48;23.40;87.80
20546;DHT22;10431;50.228;9.112;2023-07-08T11:54:26;23.30;88.60
20546;DHT22;10431;50.228;9.112;2023-07-08T11:59:22;23.30;88.90
20546;DHT22;10431;50.228;9.112;2023-07-08T12:02:11;23.30;89.00
20546;DHT22;10431;50.228;9.112;2023-07-08T12:07:32;23.30;88.40
20546;DHT22;10431;50.228;9.112;2023-07-08T12:09:59;23.40;88.00
20546;DHT22;10431;50.228;9.112;2023-07-08T12:12:30;23.80;83.60
20546;DHT22;10431;50.228;9.112;2023-07-08T12:14:58;23.70;84.40
20546;DHT22;10431;50.228;9.112;2023-07-08T12:17:26;23.70;86.40
20546;DHT22;10431;50.228;9.112;2023-07-08T12:19:52;23.50;87.20
20546;DHT22;10431;50.228;9.112;2023-07-08T12:22:21;23.50;87.50
20546;DHT22;10431;50.228;9.112;2023-07-08T12:24:47;23.50;87.80
20546;DHT22;10431;50.228;9.112;2023-07-08T12:27:13;23.40;86.50
20546;DHT22;10431;50.228;9.112;2023-07-08T12:29:39;23.90;83.10
20546;DHT22;10431;50.228;9.112;2023-07-08T12:32:05;24.30;80.20
20546;DHT22;10431;50.228;9.112;2023-07-08T12:34:31;24.20;81.20
20546;DHT22;10431;50.228;9.112;2023-07-08T12:36:57;24.00;82.50
20546;DHT22;10431;50.228;9.112;2023-07-08T12:39:23;23.80;84.20
20546;DHT22;10431;50.228;9.112;2023-07-08T12:41:49;23.70;85.10
20546;DHT22;10431;50.228;9.112;2023-07-08T12:44:18;23.60;85.60
20546;DHT22;10431;50.228;9.112;2023-07-08T12:46:45;23.50;86.00
20546;DHT22;10431;50.228;9.112;2023-07-08T12:49:13;23.50;86.50
20546;DHT22;10431;50.228;9.112;2023-07-08T12:51:42;23.50;86.60
20546;DHT22;10431;50.228;9.112;2023-07-08T12:54:09;23.50;87.70
20546;DHT22;10431;50.228;9.112;2023-07-08T12:56:35;23.50;88.00
20546;DHT22;10431;50.228;9.112;2023-07-08T12:59:02;23.50;88.60
20546;DHT22;10431;50.228;9.112;2023-07-08T13:01:28;23.50;88.90
20546;DHT22;10431;50.228;9.112;2023-07-08T13:03:56;23.50;88.90
20546;DHT22;10431;50.228;9.112;2023-07-08T13:06:25;23.50;89.00
20546;DHT22;10431;50.228;9.112;2023-07-08T13:08:51;23.40;88.90
20546;DHT22;10431;50.228;9.112;2023-07-08T13:11:18;23.50;89.00
20546;DHT22;10431;50.228;9.112;2023-07-08T13:13:53;23.40;89.00
20546;DHT22;10431;50.228;9.112;2023-07-08T13:16:19;23.40;89.00
20546;DHT22;10431;50.228;9.112;2023-07-08T13:18:46;23.50;88.60
20546;DHT22;10431;50.228;9.112;2023-07-08T13:21:13;23.50;88.80
20546;DHT22;10431;50.228;9.112;2023-07-08T13:23:39;23.50;89.00
20546;DHT22;10431;50.228;9.112;2023-07-08T13:26:16;23.50;89.10
20546;DHT22;10431;50.228;9.112;2023-07-08T13:28:43;23.50;89.10
20546;DHT22;10431;50.228;9.112;2023-07-08T13:31:18;23.40;89.10
20546;DHT22;10431;50.228;9.112;2023-07-08T13:33:46;23.40;89.20
20546;DHT22;10431;50.228;9.112;2023-07-08T13:36:12;23.40;89.20
20546;DHT22;10431;50.228;9.112;2023-07-08T13:38:39;23.30;89.30
20546;DHT22;10431;50.228;9.112;2023-07-08T13:41:05;23.40;89.40
20546;DHT22;10431;50.228;9.112;2023-07-08T13:43:33;23.30;89.30
20546;DHT22;10431;50.228;9.112;2023-07-08T13:46:01;23.30;89.20
20546;DHT22;10431;50.228;9.112;2023-07-08T13:48:28;23.30;89.50
20546;DHT22;10431;50.228;9.112;2023-07-08T13:53:23;23.30;89.40
20546;DHT22;10431;50.228;9.112;2023-07-08T13:55:56;23.40;88.80
20546;DHT22;10431;50.228;9.112;2023-07-08T13:58:25;23.40;89.00
20546;DHT22;10431;50.228;9.112;2023-07-08T14:00:52;23.40;89.20
20546;DHT22;10431;50.228;9.112;2023-07-08T14:03:17;23.40;89.20
20546;DHT22;10431;50.228;9.112;2023-07-08T14:05:44;23.40;89.20
20546;DHT22;10431;50.228;9.112;2023-07-08T14:08:12;23.40;89.20
20546;DHT22;10431;50.228;9.112;2023-07-08T14:10:39;23.50;89.30
20546;DHT22;10431;50.228;9.112;2023-07-08T14:13:05;23.40;89.30
20546;DHT22;10431;50.228;9.112;2023-07-08T14:15:31;23.50;89.50
20546;DHT22;10431;50.228;9.112;2023-07-08T14:18:00;23.50;89.50
20546;DHT22;10431;50.228;9.112;2023-07-08T14:20:26;23.50;89.50
20546;DHT22;10431;50.228;9.112;2023-07-08T14:22:53;23.50;89.60
20546;DHT22;10431;50.228;9.112;2023-07-08T14:25:19;23.50;89.60
20546;DHT22;10431;50.228;9.112;2023-07-08T14:27:50;23.50;89.60
20546;DHT22;10431;50.228;9.112;2023-07-08T14:30:16;23.40;89.60
20546;DHT22;10431;50.228;9.112;2023-07-08T14:32:42;23.40;89.70
20546;DHT22;10431;50.228;9.112;2023-07-08T14:35:20;23.40;89.70
20546;DHT22;10431;50.228;9.112;2023-07-08T14:37:47;23.50;89.80
20546;DHT22;10431;50.228;9.112;2023-07-08T14:40:18;23.50;89.70
20546;DHT22;10431;50.228;9.112;2023-07-08T14:42:45;23.50;89.80
20546;DHT22;10431;50.228;9.112;2023-07-08T14:45:11;23.50;89.70
20546;DHT22;10431;50.228;9.112;2023-07-08T14:47:37;23.50;89.60
20546;DHT22;10431;50.228;9.112;2023-07-08T14:50:10;23.50;89.70
20546;DHT22;10431;50.228;9.112;2023-07-08T14:52:37;23.50;89.80
20546;DHT22;10431;50.228;9.112;2023-07-08T14:55:03;23.50;89.80
20546;DHT22;10431;50.228;9.112;2023-07-08T14:57:30;23.50;90.00
20546;DHT22;10431;50.228;9.112;2023-07-08T14:59:57;23.50;90.00
20546;DHT22;10431;50.228;9.112;2023-07-08T15:02:23;23.50;90.00
20546;DHT22;10431;50.228;9.112;2023-07-08T15:04:50;23.50;90.00
20546;DHT22;10431;50.228;9.112;2023-07-08T15:07:19;23.50;90.00
20546;DHT22;10431;50.228;9.112;2023-07-08T15:09:47;23.70;89.00
20546;DHT22;10431;50.228;9.112;2023-07-08T15:12:13;23.80;88.80
20546;DHT22;10431;50.228;9.112;2023-07-08T15:14:39;23.80;89.10
20546;DHT22;10431;50.228;9.112;2023-07-08T15:17:15;23.80;89.30
20546;DHT22;10431;50.228;9.112;2023-07-08T15:19:44;23.70;89.60
20546;DHT22;10431;50.228;9.112;2023-07-08T15:22:10;23.70;89.70
20546;DHT22;10431;50.228;9.112;2023-07-08T15:24:37;23.70;89.80
20546;DHT22;10431;50.228;9.112;2023-07-08T15:27:03;23.60;89.80
20546;DHT22;10431;50.228;9.112;2023-07-08T15:29:29;23.70;89.90
20546;DHT22;10431;50.228;9.112;2023-07-08T15:31:56;23.60;90.00
20546;DHT22;10431;50.228;9.112;2023-07-08T15:34:22;23.60;89.90
20546;DHT22;10431;50.228;9.112;2023-07-08T15:36:48;23.60;89.90
20546;DHT22;10431;50.228;9.112;2023-07-08T15:39:15;23.60;90.00
20546;DHT22;10431;50.228;9.112;2023-07-08T15:41:41;23.60;90.00
20546;DHT22;10431;50.228;9.112;2023-07-08T15:44:12;23.60;90.10
20546;DHT22;10431;50.228;9.112;2023-07-08T15:46:45;23.60;90.00
20546;DHT22;10431;50.228;9.112;2023-07-08T15:49:15;23.60;90.10
20546;DHT22;10431;50.228;9.112;2023-07-08T15:51:41;23.60;90.00
20546;DHT22;10431;50.228;9.112;2023-07-08T15:54:07;23.60;90.00
20546;DHT22;10431;50.228;9.112;2023-07-08T15:56:33;23.60;89.90
20546;DHT22;10431;50.228;9.112;2023-07-08T15:58:59;23.60;89.80
20546;DHT22;10431;50.228;9.112;2023-07-08T16:01:25;23.70;89.90
20546;DHT22;10431;50.228;9.112;2023-07-08T16:03:52;23.80;87.10
20546;DHT22;10431;50.228;9.112;2023-07-08T16:06:18;24.20;86.60
20546;DHT22;10431;50.228;9.112;2023-07-08T16:08:44;24.10;83.90
20546;DHT22;10431;50.228;9.112;2023-07-08T16:11:15;24.20;83.70
20546;DHT22;10431;50.228;9.112;2023-07-08T16:13:42;24.10;84.80
20546;DHT22;10431;50.228;9.112;2023-07-08T16:16:09;24.00;86.10
20546;DHT22;10431;50.228;9.112;2023-07-08T16:18:36;24.00;87.20